sensor_id;sensor_type;location;lat;lon;timestamp;pressure;altitude;pressure_sealevel;temperature;humidity
37202;BME280;37799;52.390;6.136;2023-02-22T00:00:24;101575.91;;;7.91;100.00
37202;BME280;37799;52.390;6.136;2023-02-22T00:03:01;101575.91;;;7.89;100.00
37202;BME280;37799;52.390;6.136;2023-02-22T00:05:27;101567.31;;;7.92;100.00
37202;BME280;37799;52.390;6.136;2023-02-22T00:07:53;101557.03;;;7.86;100.00
37202;BME280;37799;52.390;6.136;2023-02-22T00:10:23;101545.03;;;7.82;100.00
37202;BME280;37799;52.390;6.136;2023-02-22T00:12:50;101560.47;;;7.80;100.00
37202;BME280;37799;52.390;6.136;2023-02-22T00:15:18;101557.84;;;7.92;100.00
37202;BME280;37799;52.390;6.136;2023-02-22T00:17:44;101551.84;;;7.89;100.00
37202;BME280;37799;52.390;6.136;2023-02-22T00:20:11;101553.53;;;8.02;100.00
37202;BME280;37799;52.390;6.136;2023-02-22T00:22:42;101546.69;;;7.90;100.00
37202;BME280;37799;52.390;6.136;2023-02-22T00:25:08;101544.16;;;7.84;100.00
37202;BME280;37799;52.390;6.136;2023-02-22T00:27:34;101541.50;;;7.98;100.00
37202;BME280;37799;52.390;6.136;2023-02-22T00:30:00;101544.13;;;7.87;100.00
37202;BME280;37799;52.390;6.136;2023-02-22T00:32:25;101531.25;;;7.80;100.00
37202;BME280;37799;52.390;6.136;2023-02-22T00:34:52;101535.53;;;7.81;100.00
37202;BME280;37799;52.390;6.136;2023-02-22T00:37:18;101535.56;;;7.76;100.00
37202;BME280;37799;52.390;6.136;2023-02-22T00:39:49;101529.53;;;7.85;100.00
37202;BME280;37799;52.390;6.136;2023-02-22T00:42:16;101536.41;;;7.77;100.00
37202;BME280;37799;52.390;6.136;2023-02-22T00:44:41;101528.72;;;7.72;100.00
37202;BME280;37799;52.390;6.136;2023-02-22T00:47:07;101525.28;;;7.67;100.00
37202;BME280;37799;52.390;6.136;2023-02-22T00:49:32;101528.72;;;7.71;100.00
37202;BME280;37799;52.390;6.136;2023-02-22T00:51:59;101523.53;;;7.75;100.00
37202;BME280;37799;52.390;6.136;2023-02-22T00:54:24;101525.25;;;7.75;100.00
37202;BME280;37799;52.390;6.136;2023-02-22T00:56:49;101526.16;;;7.71;100.00
37202;BME280;37799;52.390;6.136;2023-02-22T00:59:15;101526.09;;;7.83;100.00
37202;BME280;37799;52.390;6.136;2023-02-22T01:01:41;101530.41;;;7.82;100.00
37202;BME280;37799;52.390;6.136;2023-02-22T01:04:07;101538.13;;;7.87;100.00
37202;BME280;37799;52.390;6.136;2023-02-22T01:06:32;101535.56;;;7.82;100.00
37202;BME280;37799;52.390;6.136;2023-02-22T01:08:58;101535.53;;;7.79;100.00
37202;BME280;37799;52.390;6.136;2023-02-22T01:11:23;101524.41;;;7.73;100.00
37202;BME280;37799;52.390;6.136;2023-02-22T01:13:49;101526.91;;;7.91;100.00
37202;BME280;37799;52.390;6.136;2023-02-22T01:16:18;101523.56;;;7.71;100.00
37202;BME280;37799;52.390;6.136;2023-02-22T01:18:43;101520.09;;;7.75;100.00
37202;BME280;37799;52.390;6.136;2023-02-22T01:21:09;101523.53;;;7.84;100.00
37202;BME280;37799;52.390;6.136;2023-02-22T01:23:34;101514.97;;;7.72;100.00
37202;BME280;37799;52.390;6.136;2023-02-22T01:25:59;101524.44;;;7.63;100.00
37202;BME280;37799;52.390;6.136;2023-02-22T01:28:25;101526.16;;;7.61;100.00
37202;BME280;37799;52.390;6.136;2023-02-22T01:30:50;101514.97;;;7.64;100.00
37202;BME280;37799;52.390;6.136;2023-02-22T01:33:16;101508.06;;;7.81;100.00
37202;BME280;37799;52.390;6.136;2023-02-22T01:35:42;101502.94;;;7.64;100.00
37202;BME280;37799;52.390;6.136;2023-02-22T01:38:09;101506.41;;;7.60;100.00
37202;BME280;37799;52.390;6.136;2023-02-22T01:40:39;101496.84;;;7.90;100.00
37202;BME280;37799;52.390;6.136;2023-02-22T01:43:18;101507.19;;;7.81;100.00
37202;BME280;37799;52.390;6.136;2023-02-22T01:45:53;101495.25;;;7.52;100.00
37202;BME280;37799;52.390;6.136;2023-02-22T01:48:27;101495.25;;;7.60;100.00
37202;BME280;37799;52.390;6.136;2023-02-22T01:50:56;101496.13;;;7.57;100.00
37202;BME280;37799;52.390;6.136;2023-02-22T01:53:36;101496.88;;;7.78;100.00
37202;BME280;37799;52.390;6.136;2023-02-22T01:56:03;101489.19;;;7.64;100.00
37202;BME280;37799;52.390;6.136;2023-02-22T01:58:32;101486.63;;;7.72;100.00
37202;BME280;37799;52.390;6.136;2023-02-22T02:00:58;101489.25;;;7.49;100.00
37202;BME280;37799;52.390;6.136;2023-02-22T02:03:28;101479.81;;;7.49;100.00
37202;BME280;37799;52.390;6.136;2023-02-22T02:05:58;101494.41;;;7.56;100.00
37202;BME280;37799;52.390;6.136;2023-02-22T02:08:40;101480.63;;;7.62;100.00
37202;BME280;37799;52.390;6.136;2023-02-22T02:11:11;101476.31;;;7.68;100.00
37202;BME280;37799;52.390;6.136;2023-02-22T02:13:37;101471.13;;;7.75;100.00
37202;BME280;37799;52.390;6.136;2023-02-22T02:16:02;101461.72;;;7.61;100.00
37202;BME280;37799;52.390;6.136;2023-02-22T02:18:28;101462.59;;;7.53;100.00
37202;BME280;37799;52.390;6.136;2023-02-22T02:35:21;101454.91;;;7.45;100.00
37202;BME280;37799;52.390;6.136;2023-02-22T02:38:38;101454.91;;;7.50;100.00
37202;BME280;37799;52.390;6.136;2023-02-22T02:41:39;101454.06;;;7.46;100.00
37202;BME280;37799;52.390;6.136;2023-02-22T02:44:10;101449.75;;;7.48;100.00
37202;BME280;37799;52.390;6.136;2023-02-22T02:47:02;101446.38;;;7.29;100.00
37202;BME280;37799;52.390;6.136;2023-02-22T02:49:32;101441.13;;;7.54;100.00
37202;BME280;37799;52.390;6.136;2023-02-22T02:52:01;101445.47;;;7.44;100.00
37202;BME280;37799;52.390;6.136;2023-02-22T02:54:28;101441.19;;;7.37;100.00
37202;BME280;37799;52.390;6.136;2023-02-22T02:56:55;101431.75;;;7.33;100.00
37202;BME280;37799;52.390;6.136;2023-02-22T02:59:27;101435.19;;;7.27;100.00
37202;BME280;37799;52.390;6.136;2023-02-22T03:02:05;101423.19;;;7.25;100.00
37202;BME280;37799;52.390;6.136;2023-02-22T03:09:55;101428.34;;;7.31;100.00
37202;BME280;37799;52.390;6.136;2023-02-22T03:12:31;101425.72;;;7.45;100.00
37202;BME280;37799;52.390;6.136;2023-02-22T03:15:18;101422.28;;;7.38;100.00
37202;BME280;37799;52.390;6.136;2023-02-22T03:17:54;101418.88;;;7.27;100.00
37202;BME280;37799;52.390;6.136;2023-02-22T03:20:47;101409.47;;;7.23;100.00
37202;BME280;37799;52.390;6.136;2023-02-22T03:23:22;101411.19;;;7.24;100.00
37202;BME280;37799;52.390;6.136;2023-02-22T03:26:02;101408.63;;;7.13;100.00
37202;BME280;37799;52.390;6.136;2023-02-22T03:28:29;101412.94;;;7.11;100.00
37202;BME280;37799;52.390;6.136;2023-02-22T03:30:59;101399.19;;;7.03;100.00
37202;BME280;37799;52.390;6.136;2023-02-22T03:33:31;101400.06;;;7.00;100.00
37202;BME280;37799;52.390;6.136;2023-02-22T03:36:00;101400.97;;;6.93;100.00
37202;BME280;37799;52.390;6.136;2023-02-22T03:38:28;101398.38;;;6.95;100.00
37202;BME280;37799;52.390;6.136;2023-02-22T03:40:58;101396.63;;;7.10;100.00
37202;BME280;37799;52.390;6.136;2023-02-22T03:43:29;101394.94;;;7.05;100.00
37202;BME280;37799;52.390;6.136;2023-02-22T03:45:56;101393.22;;;6.98;100.00
37202;BME280;37799;52.390;6.136;2023-02-22T03:49:13;101392.38;;;7.03;100.00
37202;BME280;37799;52.390;6.136;2023-02-22T03:51:18;101393.19;;;7.18;100.00
37202;BME280;37799;52.390;6.136;2023-02-22T03:53:45;101389.78;;;7.05;100.00
37202;BME280;37799;52.390;6.136;2023-02-22T03:56:17;101402.66;;;6.97;100.00
37202;BME280;37799;52.390;6.136;2023-02-22T03:58:45;101385.47;;;7.02;100.00
37202;BME280;37799;52.390;6.136;2023-02-22T04:01:12;101392.41;;;6.80;100.00
37202;BME280;37799;52.390;6.136;2023-02-22T04:03:37;101387.19;;;7.06;100.00
37202;BME280;37799;52.390;6.136;2023-02-22T04:06:04;101391.50;;;6.89;100.00
37202;BME280;37799;52.390;6.136;2023-02-22T04:08:30;101389.78;;;7.06;100.00
37202;BME280;37799;52.390;6.136;2023-02-22T04:10:55;101393.28;;;6.79;100.00
37202;BME280;37799;52.390;6.136;2023-02-22T04:13:20;101383.81;;;6.92;100.00
37202;BME280;37799;52.390;6.136;2023-02-22T04:15:46;101378.66;;;6.86;100.00
37202;BME280;37799;52.390;6.136;2023-02-22T04:18:11;101394.13;;;6.82;100.00
37202;BME280;37799;52.390;6.136;2023-02-22T04:20:36;101384.66;;;6.91;100.00
37202;BME280;37799;52.390;6.136;2023-02-22T04:23:01;101385.47;;;7.12;100.00
37202;BME280;37799;52.390;6.136;2023-02-22T04:25:27;101388.06;;;7.04;100.00
37202;BME280;37799;52.390;6.136;2023-02-22T04:27:52;101391.53;;;6.74;100.00
37202;BME280;37799;52.390;6.136;2023-02-22T04:30:18;101381.25;;;6.63;100.00
37202;BME280;37799;52.390;6.136;2023-02-22T04:32:44;101383.84;;;6.68;100.00
37202;BME280;37799;52.390;6.136;2023-02-22T04:35:09;101377.84;;;6.54;100.00
37202;BME280;37799;52.390;6.136;2023-02-22T04:37:35;101379.56;;;6.45;100.00
37202;BME280;37799;52.390;6.136;2023-02-22T04:40:02;101382.16;;;6.29;100.00
37202;BME280;37799;52.390;6.136;2023-02-22T04:42:27;101370.97;;;6.36;100.00
37202;BME280;37799;52.390;6.136;2023-02-22T04:44:53;101376.13;;;6.31;100.00
37202;BME280;37799;52.390;6.136;2023-02-22T04:47:18;101374.41;;;6.22;100.00
37202;BME280;37799;52.390;6.136;2023-02-22T04:49:43;101365.84;;;6.02;100.00
37202;BME280;37799;52.390;6.136;2023-02-22T04:52:10;101359.00;;;6.00;100.00
37202;BME280;37799;52.390;6.136;2023-02-22T04:54:35;101352.09;;;5.94;100.00
37202;BME280;37799;52.390;6.136;2023-02-22T04:57:00;101363.25;;;6.08;100.00
37202;BME280;37799;52.390;6.136;2023-02-22T04:59:26;101358.06;;;5.82;100.00
37202;BME280;37799;52.390;6.136;2023-02-22T05:01:51;101358.91;;;5.84;100.00
37202;BME280;37799;52.390;6.136;2023-02-22T05:04:17;101352.91;;;5.82;100.00
37202;BME280;37799;52.390;6.136;2023-02-22T05:06:43;101357.25;;;5.96;100.00
37202;BME280;37799;52.390;6.136;2023-02-22T05:09:08;101352.91;;;5.78;100.00
37202;BME280;37799;52.390;6.136;2023-02-22T05:11:33;101360.59;;;5.70;100.00
37202;BME280;37799;52.390;6.136;2023-02-22T05:13:58;101352.03;;;5.60;100.00
37202;BME280;37799;52.390;6.136;2023-02-22T05:16:24;101352.00;;;5.53;100.00
37202;BME280;37799;52.390;6.136;2023-02-22T05:18:50;101338.31;;;5.60;100.00
37202;BME280;37799;52.390;6.136;2023-02-22T05:21:15;101334.81;;;5.44;100.00
37202;BME280;37799;52.390;6.136;2023-02-22T05:23:41;101326.22;;;5.31;100.00
37202;BME280;37799;52.390;6.136;2023-02-22T05:26:06;101335.63;;;5.26;100.00
37202;BME280;37799;52.390;6.136;2023-02-22T05:28:31;101333.06;;;5.29;100.00
37202;BME280;37799;52.390;6.136;2023-02-22T05:30:57;101330.50;;;5.32;100.00
37202;BME280;37799;52.390;6.136;2023-02-22T05:33:22;101322.78;;;5.22;100.00
37202;BME280;37799;52.390;6.136;2023-02-22T05:35:48;101315.91;;;5.18;100.00
37202;BME280;37799;52.390;6.136;2023-02-22T05:38:14;101309.91;;;5.14;100.00
37202;BME280;37799;52.390;6.136;2023-02-22T05:40:41;101311.66;;;5.24;100.00
37202;BME280;37799;52.390;6.136;2023-02-22T05:43:06;101315.09;;;5.26;100.00
37202;BME280;37799;52.390;6.136;2023-02-22T05:45:32;101311.72;;;5.37;100.00
37202;BME280;37799;52.390;6.136;2023-02-22T05:47:57;101303.97;;;5.29;100.00
37202;BME280;37799;52.390;6.136;2023-02-22T05:50:22;101313.38;;;5.28;100.00
37202;BME280;37799;52.390;6.136;2023-02-22T05:52:48;101306.53;;;5.24;100.00
37202;BME280;37799;52.390;6.136;2023-02-22T05:55:16;101301.41;;;5.24;100.00
37202;BME280;37799;52.390;6.136;2023-02-22T05:57:42;101301.41;;;5.30;100.00
37202;BME280;37799;52.390;6.136;2023-02-22T06:00:09;101308.28;;;5.35;100.00
37202;BME280;37799;52.390;6.136;2023-02-22T06:02:34;101312.59;;;5.57;100.00
37202;BME280;37799;52.390;6.136;2023-02-22T06:04:59;101306.53;;;5.30;100.00
37202;BME280;37799;52.390;6.136;2023-02-22T06:07:25;101306.53;;;5.24;100.00
37202;BME280;37799;52.390;6.136;2023-02-22T06:09:51;101291.13;;;5.24;100.00
37202;BME280;37799;52.390;6.136;2023-02-22T06:12:18;101297.97;;;5.31;100.00
37202;BME280;37799;52.390;6.136;2023-02-22T06:14:43;101289.41;;;5.23;100.00
37202;BME280;37799;52.390;6.136;2023-02-22T06:17:12;101294.56;;;5.32;100.00
37202;BME280;37799;52.390;6.136;2023-02-22T06:19:37;101290.31;;;5.39;100.00
37202;BME280;37799;52.390;6.136;2023-02-22T06:22:04;101285.19;;;5.35;100.00
37202;BME280;37799;52.390;6.136;2023-02-22T06:24:29;101286.91;;;5.54;100.00
37202;BME280;37799;52.390;6.136;2023-02-22T06:26:56;101284.38;;;5.60;100.00
37202;BME280;37799;52.390;6.136;2023-02-22T06:29:23;101289.50;;;5.48;100.00
37202;BME280;37799;52.390;6.136;2023-02-22T06:31:49;101288.66;;;5.69;100.00
37202;BME280;37799;52.390;6.136;2023-02-22T06:34:15;101298.03;;;5.56;100.00
37202;BME280;37799;52.390;6.136;2023-02-22T06:36:40;101284.34;;;5.52;100.00
37202;BME280;37799;52.390;6.136;2023-02-22T06:39:06;101278.34;;;5.47;100.00
37202;BME280;37799;52.390;6.136;2023-02-22T06:41:36;101282.63;;;5.51;100.00
37202;BME280;37799;52.390;6.136;2023-02-22T06:44:01;101278.31;;;5.41;100.00
37202;BME280;37799;52.390;6.136;2023-02-22T06:46:26;101277.50;;;5.59;100.00
37202;BME280;37799;52.390;6.136;2023-02-22T06:48:52;101267.19;;;5.47;100.00
37202;BME280;37799;52.390;6.136;2023-02-22T06:51:17;101266.34;;;5.43;100.00
37202;BME280;37799;52.390;6.136;2023-02-22T06:53:42;101263.81;;;5.63;100.00
37202;BME280;37799;52.390;6.136;2023-02-22T06:56:08;101267.22;;;5.68;100.00
37202;BME280;37799;52.390;6.136;2023-02-22T06:58:34;101269.81;;;5.68;100.00
37202;BME280;37799;52.390;6.136;2023-02-22T07:00:59;101271.53;;;5.75;100.00
37202;BME280;37799;52.390;6.136;2023-02-22T07:03:26;101274.94;;;5.70;100.00
37202;BME280;37799;52.390;6.136;2023-02-22T07:05:52;101270.66;;;5.64;100.00
37202;BME280;37799;52.390;6.136;2023-02-22T07:08:17;101279.25;;;5.77;100.00
37202;BME280;37799;52.390;6.136;2023-02-22T07:10:42;101279.25;;;5.83;100.00
37202;BME280;37799;52.390;6.136;2023-02-22T07:13:07;101279.22;;;5.65;100.00
37202;BME280;37799;52.390;6.136;2023-02-22T07:15:34;101279.22;;;5.69;100.00
37202;BME280;37799;52.390;6.136;2023-02-22T07:18:00;101278.41;;;5.75;100.00
37202;BME280;37799;52.390;6.136;2023-02-22T07:20:28;101280.94;;;5.67;100.00
37202;BME280;37799;52.390;6.136;2023-02-22T07:22:53;101269.81;;;5.80;100.00
37202;BME280;37799;52.390;6.136;2023-02-22T07:25:19;101268.97;;;5.98;100.00
37202;BME280;37799;52.390;6.136;2023-02-22T07:27:46;101271.56;;;5.90;100.00
37202;BME280;37799;52.390;6.136;2023-02-22T07:30:24;101281.81;;;5.81;100.00
37202;BME280;37799;52.390;6.136;2023-02-22T07:32:53;101282.66;;;5.80;100.00
37202;BME280;37799;52.390;6.136;2023-02-22T07:35:27;101281.84;;;5.92;100.00
37202;BME280;37799;52.390;6.136;2023-02-22T07:37:53;101285.28;;;5.93;100.00
37202;BME280;37799;52.390;6.136;2023-02-22T07:40:19;101286.13;;;5.91;100.00
37202;BME280;37799;52.390;6.136;2023-02-22T07:43:26;101279.28;;;6.07;100.00
37202;BME280;37799;52.390;6.136;2023-02-22T07:45:44;101285.28;;;6.05;100.00
37202;BME280;37799;52.390;6.136;2023-02-22T07:48:10;101280.94;;;5.84;100.00
37202;BME280;37799;52.390;6.136;2023-02-22T07:50:39;101279.28;;;5.95;100.00
37202;BME280;37799;52.390;6.136;2023-02-22T07:53:07;101281.00;;;5.96;100.00
37202;BME280;37799;52.390;6.136;2023-02-22T07:55:35;101273.28;;;5.93;100.00
37202;BME280;37799;52.390;6.136;2023-02-22T07:58:02;101264.69;;;5.89;100.00
37202;BME280;37799;52.390;6.136;2023-02-22T08:00:34;101262.16;;;6.05;100.00
37202;BME280;37799;52.390;6.136;2023-02-22T08:03:01;101270.69;;;6.24;100.00
37202;BME280;37799;52.390;6.136;2023-02-22T08:05:28;101262.13;;;6.20;100.00
37202;BME280;37799;52.390;6.136;2023-02-22T08:07:54;101264.72;;;6.00;100.00
37202;BME280;37799;52.390;6.136;2023-02-22T08:10:21;101255.28;;;5.87;100.00
37202;BME280;37799;52.390;6.136;2023-02-22T08:12:47;101262.94;;;5.85;100.00
37202;BME280;37799;52.390;6.136;2023-02-22T08:15:25;101260.41;;;5.79;100.00
37202;BME280;37799;52.390;6.136;2023-02-22T08:17:53;101257.00;;;5.97;100.00
37202;BME280;37799;52.390;6.136;2023-02-22T08:20:18;101262.16;;;6.05;100.00
37202;BME280;37799;52.390;6.136;2023-02-22T08:22:44;101264.72;;;5.93;100.00
37202;BME280;37799;52.390;6.136;2023-02-22T08:25:10;101270.72;;;5.93;100.00
37202;BME280;37799;52.390;6.136;2023-02-22T08:27:35;101265.56;;;5.93;100.00
37202;BME280;37799;52.390;6.136;2023-02-22T08:30:01;101262.13;;;5.89;100.00
37202;BME280;37799;52.390;6.136;2023-02-22T08:32:26;101259.59;;;6.00;100.00
37202;BME280;37799;52.390;6.136;2023-02-22T08:34:51;101261.28;;;6.15;100.00
37202;BME280;37799;52.390;6.136;2023-02-22T08:37:17;101260.44;;;6.16;100.00
37202;BME280;37799;52.390;6.136;2023-02-22T08:39:43;101261.28;;;6.16;100.00
37202;BME280;37799;52.390;6.136;2023-02-22T08:42:09;101257.00;;;6.08;100.00
37202;BME280;37799;52.390;6.136;2023-02-22T08:44:36;101262.13;;;6.20;100.00
37202;BME280;37799;52.390;6.136;2023-02-22T08:47:01;101260.44;;;6.01;100.00
37202;BME280;37799;52.390;6.136;2023-02-22T08:49:26;101272.41;;;6.11;100.00
37202;BME280;37799;52.390;6.136;2023-02-22T08:51:52;101255.28;;;6.07;100.00
37202;BME280;37799;52.390;6.136;2023-02-22T08:54:17;101253.56;;;6.15;100.00
37202;BME280;37799;52.390;6.136;2023-02-22T08:56:43;101259.56;;;6.17;100.00
37202;BME280;37799;52.390;6.136;2023-02-22T08:59:08;101262.09;;;6.37;100.00
37202;BME280;37799;52.390;6.136;2023-02-22T09:01:33;101270.63;;;6.56;100.00
37202;BME280;37799;52.390;6.136;2023-02-22T09:03:59;101268.94;;;6.38;100.00
37202;BME280;37799;52.390;6.136;2023-02-22T09:06:25;101264.63;;;6.50;100.00
37202;BME280;37799;52.390;6.136;2023-02-22T09:08:50;101265.53;;;6.40;100.00
37202;BME280;37799;52.390;6.136;2023-02-22T09:11:16;101258.66;;;6.44;100.00
37202;BME280;37799;52.390;6.136;2023-02-22T09:13:42;101252.66;;;6.51;100.00
37202;BME280;37799;52.390;6.136;2023-02-22T09:16:08;101255.16;;;6.68;100.00
37202;BME280;37799;52.390;6.136;2023-02-22T09:18:33;101252.63;;;6.48;100.00
37202;BME280;37799;52.390;6.136;2023-02-22T09:20:58;101246.59;;;6.63;100.00
37202;BME280;37799;52.390;6.136;2023-02-22T09:23:24;101255.16;;;6.71;100.00
37202;BME280;37799;52.390;6.136;2023-02-22T09:25:50;101239.63;;;6.94;100.00
37202;BME280;37799;52.390;6.136;2023-02-22T09:28:16;101240.50;;;6.85;100.00
37202;BME280;37799;52.390;6.136;2023-02-22T09:30:41;101236.19;;;6.89;100.00
37202;BME280;37799;52.390;6.136;2023-02-22T09:33:15;101239.59;;;6.97;100.00
37202;BME280;37799;52.390;6.136;2023-02-22T09:35:42;101238.72;;;7.01;100.00
37202;BME280;37799;52.390;6.136;2023-02-22T09:38:11;101251.59;;;7.05;100.00
37202;BME280;37799;52.390;6.136;2023-02-22T09:40:39;101244.66;;;7.14;100.00
37202;BME280;37799;52.390;6.136;2023-02-22T09:48:42;101246.44;;;7.02;100.00
37202;BME280;37799;52.390;6.136;2023-02-22T09:51:16;101243.84;;;7.02;100.00
37202;BME280;37799;52.390;6.136;2023-02-22T09:53:47;101245.50;;;7.19;100.00
37202;BME280;37799;52.390;6.136;2023-02-22T09:56:17;101235.16;;;7.26;100.00
37202;BME280;37799;52.390;6.136;2023-02-22T09:58:46;101236.16;;;7.04;100.00
37202;BME280;37799;52.390;6.136;2023-02-22T10:01:30;101230.91;;;7.18;100.00
37202;BME280;37799;52.390;6.136;2023-02-22T10:09:36;101224.75;;;7.38;100.00
37202;BME280;37799;52.390;6.136;2023-02-22T10:15:12;101226.06;;;7.91;100.00
37202;BME280;37799;52.390;6.136;2023-02-22T10:20:36;101216.72;;;7.83;100.00
37202;BME280;37799;52.390;6.136;2023-02-22T10:28:52;101225.72;;;8.34;100.00
37202;BME280;37799;52.390;6.136;2023-02-22T10:31:26;101224.66;;;8.52;100.00
37202;BME280;37799;52.390;6.136;2023-02-22T10:33:59;101237.16;;;8.84;100.00
37202;BME280;37799;52.390;6.136;2023-02-22T10:36:25;101236.75;;;8.47;100.00
37202;BME280;37799;52.390;6.136;2023-02-22T10:39:12;101240.31;;;8.35;100.00
37202;BME280;37799;52.390;6.136;2023-02-22T10:41:48;101232.16;;;8.73;100.00
37202;BME280;37799;52.390;6.136;2023-02-22T10:44:14;101229.53;;;8.76;100.00
37202;BME280;37799;52.390;6.136;2023-02-22T10:46:42;101221.75;;;8.79;100.00
37202;BME280;37799;52.390;6.136;2023-02-22T10:49:09;101213.94;;;8.82;100.00
37202;BME280;37799;52.390;6.136;2023-02-22T10:51:41;101218.91;;;8.98;100.00
37202;BME280;37799;52.390;6.136;2023-02-22T10:56:45;101205.59;;;9.28;100.00
37202;BME280;37799;52.390;6.136;2023-02-22T10:59:25;101203.06;;;9.25;100.00
37202;BME280;37799;52.390;6.136;2023-02-22T11:01:51;101201.13;;;9.36;100.00
37202;BME280;37799;52.390;6.136;2023-02-22T11:04:18;101202.72;;;9.46;100.00
37202;BME280;37799;52.390;6.136;2023-02-22T11:06:48;101195.84;;;9.45;100.00
37202;BME280;37799;52.390;6.136;2023-02-22T11:09:20;101192.22;;;9.56;100.00
37202;BME280;37799;52.390;6.136;2023-02-22T11:11:47;101182.50;;;9.70;100.00
37202;BME280;37799;52.390;6.136;2023-02-22T11:14:28;101175.56;;;9.73;100.00
37202;BME280;37799;52.390;6.136;2023-02-22T11:16:55;101176.19;;;9.86;100.00
37202;BME280;37799;52.390;6.136;2023-02-22T11:21:54;101168.78;;;10.16;100.00
37202;BME280;37799;52.390;6.136;2023-02-22T11:24:22;101165.25;;;10.20;100.00
37202;BME280;37799;52.390;6.136;2023-02-22T11:26:58;101162.47;;;10.30;100.00
37202;BME280;37799;52.390;6.136;2023-02-22T11:29:27;101150.75;;;10.10;100.00
37202;BME280;37799;52.390;6.136;2023-02-22T11:31:56;101146.69;;;9.96;100.00
37202;BME280;37799;52.390;6.136;2023-02-22T11:34:29;101152.22;;;9.78;100.00
37202;BME280;37799;52.390;6.136;2023-02-22T11:36:56;101142.47;;;9.92;100.00
37202;BME280;37799;52.390;6.136;2023-02-22T11:39:27;101138.63;;;10.12;100.00
37202;BME280;37799;52.390;6.136;2023-02-22T11:41:55;101148.91;;;10.18;100.00
37202;BME280;37799;52.390;6.136;2023-02-22T11:44:28;101137.63;;;10.22;100.00
37202;BME280;37799;52.390;6.136;2023-02-22T11:46:55;101145.31;;;10.25;100.00
37202;BME280;37799;52.390;6.136;2023-02-22T11:49:31;101147.91;;;10.25;100.00
37202;BME280;37799;52.390;6.136;2023-02-22T11:52:17;101141.53;;;10.43;100.00
37202;BME280;37799;52.390;6.136;2023-02-22T11:55:06;101148.69;;;10.72;100.00
37202;BME280;37799;52.390;6.136;2023-02-22T11:58:21;101154.72;;;10.72;100.00
37202;BME280;37799;52.390;6.136;2023-02-22T12:00:56;101142.03;;;10.60;100.00
37202;BME280;37799;52.390;6.136;2023-02-22T12:03:43;101146.97;;;10.71;100.00
37202;BME280;37799;52.390;6.136;2023-02-22T12:06:23;101148.56;;;10.76;100.00
37202;BME280;37799;52.390;6.136;2023-02-22T12:09:12;101145.72;;;10.88;100.00
37202;BME280;37799;52.390;6.136;2023-02-22T12:14:35;101142.41;;;11.20;100.00
37202;BME280;37799;52.390;6.136;2023-02-22T12:17:39;101142.53;;;11.50;100.00
37202;BME280;37799;52.390;6.136;2023-02-22T12:20:19;101140.41;;;12.00;100.00
37202;BME280;37799;52.390;6.136;2023-02-22T12:23:29;101133.41;;;12.03;100.00
37202;BME280;37799;52.390;6.136;2023-02-22T12:26:32;101127.22;;;12.07;100.00
37202;BME280;37799;52.390;6.136;2023-02-22T12:28:59;101116.50;;;11.89;100.00
37202;BME280;37799;52.390;6.136;2023-02-22T12:31:39;101116.78;;;11.76;100.00
37202;BME280;37799;52.390;6.136;2023-02-22T12:37:15;101124.44;;;11.82;100.00
37202;BME280;37799;52.390;6.136;2023-02-22T12:39:52;101120.72;;;11.57;100.00
37202;BME280;37799;52.390;6.136;2023-02-22T12:45:26;101122.19;;;11.35;100.00
37202;BME280;37799;52.390;6.136;2023-02-22T12:48:03;101113.78;;;11.59;100.00
37202;BME280;37799;52.390;6.136;2023-02-22T12:50:32;101123.13;;;11.65;100.00
37202;BME280;37799;52.390;6.136;2023-02-22T12:53:06;101118.44;;;11.80;100.00
37202;BME280;37799;52.390;6.136;2023-02-22T12:55:41;101116.75;;;11.78;100.00
37202;BME280;37799;52.390;6.136;2023-02-22T13:03:27;101127.81;;;11.85;100.00
37202;BME280;37799;52.390;6.136;2023-02-22T13:08:39;101126.13;;;12.16;100.00
37202;BME280;37799;52.390;6.136;2023-02-22T13:11:27;101124.56;;;12.09;100.00
37202;BME280;37799;52.390;6.136;2023-02-22T13:14:12;101133.78;;;12.21;100.00
37202;BME280;37799;52.390;6.136;2023-02-22T13:16:52;101124.88;;;12.29;100.00
37202;BME280;37799;52.390;6.136;2023-02-22T13:19:27;101118.75;;;12.32;100.00
37202;BME280;37799;52.390;6.136;2023-02-22T13:22:01;101113.59;;;12.30;100.00
37202;BME280;37799;52.390;6.136;2023-02-22T13:24:36;101120.84;;;12.19;100.00
37202;BME280;37799;52.390;6.136;2023-02-22T13:27:17;101102.66;;;12.19;100.00
37202;BME280;37799;52.390;6.136;2023-02-22T13:29:47;101102.72;;;12.18;100.00
37202;BME280;37799;52.390;6.136;2023-02-22T13:35:21;101104.59;;;12.42;100.00
37202;BME280;37799;52.390;6.136;2023-02-22T13:42:59;101096.16;;;12.04;100.00
37202;BME280;37799;52.390;6.136;2023-02-22T13:56:03;101090.47;;;11.92;100.00
37202;BME280;37799;52.390;6.136;2023-02-22T13:58:29;101089.75;;;11.87;100.00
37202;BME280;37799;52.390;6.136;2023-02-22T14:00:56;101091.25;;;11.61;100.00
37202;BME280;37799;52.390;6.136;2023-02-22T14:03:39;101096.31;;;11.66;100.00
37202;BME280;37799;52.390;6.136;2023-02-22T14:06:40;101102.72;;;11.52;100.00
37202;BME280;37799;52.390;6.136;2023-02-22T14:09:12;101088.78;;;11.22;100.00
37202;BME280;37799;52.390;6.136;2023-02-22T14:11:44;101093.28;;;11.14;100.00
37202;BME280;37799;52.390;6.136;2023-02-22T14:14:12;101094.66;;;11.29;100.00
37202;BME280;37799;52.390;6.136;2023-02-22T14:16:39;101099.75;;;11.34;100.00
37202;BME280;37799;52.390;6.136;2023-02-22T14:19:16;101105.94;;;11.27;100.00
37202;BME280;37799;52.390;6.136;2023-02-22T14:22:13;101093.97;;;11.22;100.00
37202;BME280;37799;52.390;6.136;2023-02-22T14:24:49;101096.84;;;11.44;100.00